Time;durP1;ratioP1;P1;durP2;ratioP2;P2;SDS_P1;SDS_P2;PMS_P1;PMS_P2;Temp;Humidity;BMP_temperature;BMP_pressure;BME280_temperature;BME280_humidity;BME280_pressure;Samples;Min_cycle;Max_cycle;Signal;HPM_P1;HPM_P2
2023/12/28 00:00:24;;;;;;;4.00;1.70;;;;;;;1.47;64.43;99458.61;103055;1286;599916;-25
2023/12/28 00:02:52;;;;;;;9.80;1.70;;;;;;;1.32;64.87;99467.73;104867;1266;61127;-28
2023/12/28 00:05:20;;;;;;;2.90;2.20;;;;;;;1.21;65.34;99466.06;104833;1266;61036;-28
2023/12/28 00:07:48;;;;;;;4.00;1.90;;;;;;;1.12;65.55;99472.74;104892;1268;70005;-28
2023/12/28 00:10:15;;;;;;;4.10;1.70;;;;;;;1.02;65.87;99476.30;104905;1269;73070;-28
2023/12/28 00:12:43;;;;;;;3.70;1.70;;;;;;;0.94;66.03;99479.52;104871;1265;71015;-28
2023/12/28 00:15:10;;;;;;;4.30;1.70;;;;;;;0.86;66.42;99489.16;104738;1263;125658;-28
2023/12/28 00:17:38;;;;;;;2.80;1.50;;;;;;;0.75;66.90;99494.86;105037;1263;61064;-28
2023/12/28 00:20:07;;;;;;;2.80;1.40;;;;;;;1.26;66.04;99508.15;105200;1263;71039;-28
2023/12/28 00:22:37;;;;;;;4.20;1.40;;;;;;;1.93;63.99;99512.22;105109;1268;74290;-28
2023/12/28 00:25:05;;;;;;;3.60;1.50;;;;;;;2.04;62.85;99520.16;105146;1263;74574;-28
2023/12/28 00:27:35;;;;;;;4.10;1.50;;;;;;;1.93;62.80;99522.65;104837;1266;61212;-28
2023/12/28 00:37:39;;;;;;;2.50;1.10;;;;;;;1.06;64.99;99524.42;102718;1289;599515;-25
2023/12/28 00:40:07;;;;;;;4.70;1.80;;;;;;;0.86;65.63;99517.06;104815;1272;61196;-27
2023/12/28 00:42:35;;;;;;;2.50;1.70;;;;;;;0.74;65.88;99523.27;104804;1274;62415;-28
2023/12/28 00:45:03;;;;;;;3.60;2.20;;;;;;;0.59;66.37;99524.94;104767;1267;71049;-28
2023/12/28 00:47:31;;;;;;;3.60;1.60;;;;;;;0.45;67.01;99519.27;104805;1283;74316;-28
2023/12/28 00:49:59;;;;;;;3.80;2.30;;;;;;;0.34;67.18;99516.18;104788;1272;71404;-28
2023/12/28 00:52:27;;;;;;;4.30;2.00;;;;;;;0.26;67.54;99516.09;104734;1272;162722;-27
2023/12/28 00:54:55;;;;;;;6.40;1.90;;;;;;;0.16;67.89;99511.45;104769;1270;61240;-28
2023/12/28 00:57:22;;;;;;;3.30;1.20;;;;;;;0.67;67.09;99509.66;104829;1269;72263;-28
2023/12/28 00:59:50;;;;;;;2.90;1.20;;;;;;;1.45;64.58;99509.88;104786;1272;73239;-28
2023/12/28 01:02:18;;;;;;;5.70;1.70;;;;;;;1.63;63.24;99512.14;104750;1269;72835;-28
2023/12/28 01:04:45;;;;;;;7.00;1.60;;;;;;;1.48;63.37;99511.13;104785;1268;61205;-28
2023/12/28 01:14:50;;;;;;;2.90;1.30;;;;;;;0.74;65.14;99496.94;103262;1284;600060;-26
2023/12/28 01:17:19;;;;;;;4.00;1.70;;;;;;;0.59;65.43;99502.75;105030;1269;61214;-27
2023/12/28 01:19:47;;;;;;;2.80;1.80;;;;;;;0.48;65.62;99503.61;104905;1266;61830;-28
2023/12/28 01:22:15;;;;;;;2.50;1.60;;;;;;;0.34;66.13;99497.40;104806;1265;72275;-28
2023/12/28 01:32:22;;;;;;;2.20;1.40;;;;;;;0.01;66.89;99486.83;102691;1292;599403;-27
2023/12/28 01:34:50;;;;;;;3.20;1.80;;;;;;;-0.10;66.90;99486.47;104859;1266;61071;-28
2023/12/28 01:37:18;;;;;;;1.50;1.00;;;;;;;0.44;67.00;99494.00;104859;1266;61115;-28
2023/12/28 01:39:45;;;;;;;4.00;1.30;;;;;;;1.19;65.03;99494.73;104846;1270;72257;-28
2023/12/28 01:42:13;;;;;;;2.00;1.10;;;;;;;1.35;63.77;99488.17;104794;1271;74374;-28
2023/12/28 01:44:41;;;;;;;4.30;1.80;;;;;;;1.21;63.61;99485.94;104808;1266;74219;-28
2023/12/28 01:47:08;;;;;;;3.60;1.50;;;;;;;0.98;63.77;99483.81;104752;1265;137417;-29
2023/12/28 01:49:36;;;;;;;3.40;1.90;;;;;;;0.74;64.48;99479.34;104846;1266;61179;-28
2023/12/28 01:52:05;;;;;;;4.90;1.80;;;;;;;0.51;65.34;99493.77;104840;1271;72204;-28
2023/12/28 01:54:33;;;;;;;3.10;1.50;;;;;;;0.31;65.78;99499.36;105539;1253;74308;-28
2023/12/28 02:04:37;;;;;;;4.10;1.80;;;;;;;-0.27;67.89;99495.33;103131;1289;600150;-27
2023/12/28 02:07:05;;;;;;;2.90;1.40;;;;;;;-0.41;68.73;99486.70;104911;1267;61100;-28
2023/12/28 02:09:33;;;;;;;2.20;1.30;;;;;;;0.08;68.32;99493.59;105360;1260;61074;-28
2023/12/28 02:12:00;;;;;;;4.80;1.40;;;;;;;0.84;66.26;99506.20;105542;1258;72212;-30
2023/12/28 02:14:28;;;;;;;3.70;1.10;;;;;;;0.93;65.34;99513.56;105560;1260;73048;-28
2023/12/28 02:25:07;;;;;;;3.70;1.40;;;;;;;0.23;67.36;99502.70;102608;1296;600877;-28
2023/12/28 02:27:40;;;;;;;2.40;1.50;;;;;;;0.00;68.06;99500.48;104767;1267;61191;-28
2023/12/28 02:30:09;;;;;;;4.60;1.80;;;;;;;-0.12;68.36;99495.23;104718;1272;61111;-28
2023/12/28 02:32:43;;;;;;;4.80;1.90;;;;;;;-0.26;69.05;99493.09;104769;1267;72229;-28
2023/12/28 02:35:17;;;;;;;3.80;1.90;;;;;;;-0.37;69.24;99491.86;104651;1267;74335;-28
2023/12/28 02:50:18;;;;;;;2.40;1.60;;;;;;;0.69;68.58;99502.56;102707;1294;600097;-28
2023/12/28 02:52:45;;;;;;;2.40;1.50;;;;;;;0.49;69.33;99499.81;104858;1271;61210;-28
2023/12/28 02:55:14;;;;;;;4.50;1.70;;;;;;;0.36;69.33;99506.23;104867;1269;61175;-28
2023/12/28 02:57:44;;;;;;;4.80;1.60;;;;;;;0.23;69.83;99496.39;104894;1272;72432;-28
2023/12/28 03:00:12;;;;;;;3.70;2.10;;;;;;;0.12;70.36;99485.63;104844;1267;74278;-28
2023/12/28 03:02:40;;;;;;;3.00;1.80;;;;;;;0.00;70.96;99470.80;104783;1267;71476;-28
2023/12/28 03:05:08;;;;;;;2.70;1.40;;;;;;;0.61;70.49;99482.16;105140;1268;139471;-28
2023/12/28 03:15:16;;;;;;;2.50;1.60;;;;;;;1.02;69.13;99492.20;102671;1295;601003;-25
2023/12/28 03:25:20;;;;;;;3.60;1.70;;;;;;;0.51;71.05;99475.49;102666;1294;600223;-25
2023/12/28 03:27:47;;;;;;;6.50;2.10;;;;;;;0.38;71.12;99482.08;105002;1266;61130;-27
2023/12/28 03:30:15;;;;;;;8.20;1.70;;;;;;;0.57;71.53;99492.19;104819;1266;61052;-28
2023/12/28 03:40:20;;;;;;;3.80;1.80;;;;;;;1.45;69.03;99484.20;102947;1291;600110;-28
2023/12/28 03:42:47;;;;;;;5.10;1.70;;;;;;;1.20;69.54;99485.63;104848;1270;61195;-28
2023/12/28 03:45:15;;;;;;;3.50;1.90;;;;;;;1.08;69.82;99491.51;104830;1271;61070;-28
2023/12/28 03:47:43;;;;;;;6.30;2.30;;;;;;;0.90;70.31;99489.06;104877;1270;71142;-28
2023/12/28 03:50:11;;;;;;;3.70;2.30;;;;;;;0.76;70.77;99492.80;104826;1270;73027;-28
2023/12/28 03:52:39;;;;;;;5.40;2.20;;;;;;;0.67;70.87;99491.38;104718;1267;73110;-28
2023/12/28 03:55:07;;;;;;;4.50;2.00;;;;;;;0.56;71.14;99495.64;104994;1267;174149;-28
2023/12/28 03:57:35;;;;;;;4.80;1.60;;;;;;;1.16;71.21;99503.35;105151;1264;61241;-28
2023/12/28 04:00:04;;;;;;;4.90;1.40;;;;;;;1.87;69.26;99494.10;105097;1267;71024;-28
2023/12/28 04:02:39;;;;;;;4.70;2.00;;;;;;;2.03;68.12;99497.44;104725;1264;73096;-28
2023/12/28 04:05:07;;;;;;;3.10;1.50;;;;;;;1.93;68.01;99509.47;104672;1270;72677;-28
2023/12/28 04:07:35;;;;;;;4.70;1.70;;;;;;;1.76;68.03;99505.64;105112;1264;61151;-28
2023/12/28 04:10:03;;;;;;;2.40;1.50;;;;;;;1.54;68.54;99504.41;104800;1270;61196;-28
2023/12/28 04:20:11;;;;;;;2.40;1.60;;;;;;;0.88;71.35;99491.88;103218;1286;598805;-27
2023/12/28 04:30:15;;;;;;;5.30;1.80;;;;;;;2.04;68.87;99477.52;102601;1295;600233;-25
2023/12/28 04:32:43;;;;;;;2.50;1.50;;;;;;;1.96;68.66;99480.41;104851;1267;61177;-27
2023/12/28 04:35:10;;;;;;;6.90;1.80;;;;;;;1.80;68.97;99477.42;104776;1272;61260;-28
2023/12/28 04:37:38;;;;;;;4.20;2.40;;;;;;;1.49;69.78;99469.70;105060;1269;71053;-28
2023/12/28 04:40:06;;;;;;;4.70;2.30;;;;;;;1.13;71.28;99466.36;104941;1269;72481;-28
2023/12/28 04:42:34;;;;;;;4.00;1.50;;;;;;;1.06;71.67;99452.23;104815;1263;71227;-28
2023/12/28 04:45:02;;;;;;;8.20;1.20;;;;;;;0.94;71.62;99454.53;104965;1265;166189;-28
2023/12/28 04:47:30;;;;;;;3.70;1.30;;;;;;;1.03;72.35;99455.93;105226;1260;61126;-28
2023/12/28 04:49:58;;;;;;;4.00;2.20;;;;;;;1.64;70.54;99457.82;105118;1260;70627;-28
2023/12/28 04:52:27;;;;;;;4.40;1.80;;;;;;;1.87;69.59;99467.40;105214;1266;73155;-29
2023/12/28 04:54:54;;;;;;;4.20;1.90;;;;;;;1.65;69.93;99479.02;105234;1260;71455;-28
2023/12/28 04:57:25;;;;;;;5.60;2.40;;;;;;;1.36;70.87;99474.62;105230;1269;61129;-28
2023/12/28 04:59:53;;;;;;;4.90;2.00;;;;;;;1.06;72.03;99468.50;105283;1263;61176;-28
2023/12/28 05:02:20;;;;;;;4.50;2.00;;;;;;;0.88;73.11;99464.67;105264;1266;71743;-28
2023/12/28 05:04:48;;;;;;;4.60;2.20;;;;;;;0.71;73.87;99470.04;105007;1260;73372;-28
2023/12/28 05:07:16;;;;;;;2.60;1.60;;;;;;;0.57;74.75;99464.88;105187;1265;71716;-28
2023/12/28 05:09:44;;;;;;;2.80;1.60;;;;;;;1.11;73.68;99469.16;105209;1269;61212;-28
2023/12/28 05:19:48;;;;;;;6.20;3.00;;;;;;;1.43;72.50;99455.88;102984;1289;600500;-28
2023/12/28 05:22:16;;;;;;;7.10;3.10;;;;;;;1.24;72.85;99454.52;104823;1270;61178;-26
2023/12/28 05:24:44;;;;;;;4.70;2.40;;;;;;;1.07;73.36;99453.76;104871;1266;61066;-27
2023/12/28 05:27:11;;;;;;;7.70;3.00;;;;;;;0.89;74.61;99454.56;104826;1266;72228;-27
2023/12/28 05:29:40;;;;;;;3.20;1.40;;;;;;;0.90;75.21;99450.61;104812;1270;73160;-27
2023/12/28 05:32:07;;;;;;;4.60;2.20;;;;;;;1.61;73.43;99449.39;104837;1269;72679;-28
2023/12/28 05:34:35;;;;;;;2.90;1.90;;;;;;;1.69;72.64;99456.79;104999;1267;155228;-27
2023/12/28 05:37:03;;;;;;;5.10;1.80;;;;;;;1.69;72.76;99462.98;105055;1262;61141;-28
2023/12/28 05:39:30;;;;;;;5.60;2.60;;;;;;;1.57;72.88;99458.95;105081;1262;70984;-27
2023/12/28 05:41:58;;;;;;;7.60;3.10;;;;;;;1.39;73.48;99456.04;104817;1268;73168;-27
2023/12/28 05:44:25;;;;;;;6.60;3.20;;;;;;;1.19;74.41;99453.33;104878;1266;72653;-27
